Home   Weather   Pontefract   Past weeks
Flag for United Kingdom

Past Weather in Pontefract, England, United Kingdom — Yesterday and Last 2 Weeks

Currently: 54 °F. Passing clouds. (Weather station: Leeds And Bradford, United Kingdom). See more current weather

Past Weather in Pontefract — Graph

°F

Pontefract Temperature Yesterday

Maximum temperature yesterday: 66 °F (at 2:20 pm)
Minimum temperature yesterday: 46 °F (at 3:50 am)
Average temperature yesterday: 57 °F

High & Low Weather Summary for the Past Weeks

 TemperatureHumidityPressure
High79 °F (Jun 17, 1:50 pm)94% (Jun 12, 10:50 pm)30.24 "Hg (Jun 12, 10:50 pm)
Low46 °F (Jun 14, 1:50 am)34% (Jun 17, 11:20 am)29.50 "Hg (Jun 24, 4:50 pm)
Average59 °F67%29.98 "Hg
* Reported Jun 12 5:20 am — Jun 27 5:50 am, Pontefract. Weather by CustomWeather, © 2022

Note: Actual official high and low records may vary slightly from our data, if they occured in-between our weather recording intervals... More about our weather records

Pontefract Weather History for the Previous 24 Hours

Scroll right to see more
 ConditionsComfort  
Time TempWeatherWind HumidityBarometerVisibility
5:50 am
Mon, Jun 27
54 °FPassing clouds.10 mph82%29.80 "HgN/A
5:20 am54 °FScattered clouds.10 mph82%29.80 "HgN/A
4:50 am54 °FScattered clouds.12 mph82%29.80 "HgN/A
4:20 am54 °FPassing clouds.10 mph82%29.83 "HgN/A
3:50 am54 °FClear.10 mph82%29.83 "Hg10 mi
3:20 am54 °FClear.12 mph77%29.83 "Hg10 mi
2:50 am54 °FClear.14 mph77%29.80 "Hg10 mi
2:20 am54 °FClear.13 mph77%29.83 "Hg10 mi
1:50 am55 °FClear.13 mph72%29.83 "Hg10 mi
12:20 am55 °FClear.13 mph67%29.83 "Hg10 mi
11:50 pm
Sun, Jun 26
55 °FClear.10 mph72%29.83 "Hg10 mi
11:20 pm57 °FClear.12 mph63%29.83 "Hg10 mi
10:50 pm57 °FClear.8 mph67%29.83 "Hg10 mi
10:20 pm57 °FClear.12 mph63%29.80 "Hg10 mi
9:50 pm59 °FClear.12 mph59%29.80 "Hg10 mi
9:20 pm61 °FSunny.13 mph55%29.80 "Hg10 mi
8:50 pm61 °FPassing clouds.12 mph55%29.80 "HgN/A
8:20 pm63 °FPassing clouds.14 mph52%29.77 "HgN/A
7:50 pm64 °FPassing clouds.16 mph49%29.77 "HgN/A
7:20 pm63 °FSunny.14 mph49%29.77 "Hg10 mi
6:50 pm63 °FScattered clouds.14 mph49%29.77 "HgN/A
6:20 pm64 °FScattered clouds.14 mph49%29.77 "HgN/A
5:50 pm64 °FScattered clouds.14 mph49%29.77 "HgN/A
5:20 pm64 °FPassing clouds.16 mph46%29.74 "HgN/A
4:50 pm64 °FSunny.17 mph46%29.74 "Hg10 mi
4:20 pm66 °FSunny.20 mph40%29.74 "Hg10 mi
3:20 pm64 °FSunny.21 mph43%29.74 "Hg10 mi
2:50 pm66 °FSunny.20 mph40%29.74 "Hg10 mi
2:20 pm66 °FScattered clouds.17 mph40%29.74 "HgN/A
1:50 pm64 °FScattered clouds.20 mph43%29.74 "HgN/A
1:20 pm64 °FPassing clouds.20 mph43%29.74 "HgN/A
12:20 pm64 °FScattered clouds.23 mph43%29.74 "HgN/A
11:50 am61 °FScattered clouds.16 mph52%29.74 "HgN/A
11:20 am61 °FScattered clouds.16 mph52%29.74 "HgN/A
10:50 am59 °FScattered clouds.20 mph55%29.74 "HgN/A
10:20 am59 °FScattered clouds.17 mph63%29.74 "HgN/A
9:20 am59 °FScattered clouds.18 mph63%29.74 "HgN/A
8:50 am57 °FScattered clouds.17 mph67%29.74 "HgN/A
8:20 am55 °FScattered clouds.14 mph72%29.74 "HgN/A
7:50 am54 °FScattered clouds.13 mph77%29.74 "HgN/A
7:20 am52 °FPassing clouds.10 mph88%29.74 "HgN/A
Weather by CustomWeather, © 2022

See weather overview